createdAt,value
2022-10-17T00:00:22.604Z,1002.17
2022-10-17T00:01:22.673Z,1002.11
2022-10-17T00:02:22.584Z,1002.12
2022-10-17T00:03:22.578Z,1002.11
2022-10-17T00:04:22.606Z,1002.15
2022-10-17T00:05:22.594Z,1002.14
2022-10-17T00:06:22.621Z,1002.19
2022-10-17T00:07:22.541Z,1002.19
2022-10-17T00:08:22.582Z,1002.25
2022-10-17T00:09:22.541Z,1002.26
2022-10-17T00:10:22.550Z,1002.29
2022-10-17T00:11:22.507Z,1002.21
2022-10-17T00:12:22.505Z,1002.29
2022-10-17T00:13:22.560Z,1002.24
2022-10-17T00:14:22.490Z,1002.23
2022-10-17T00:15:22.532Z,1002.23
2022-10-17T00:16:22.491Z,1002.27
2022-10-17T00:17:22.483Z,1002.24
2022-10-17T00:18:22.453Z,1002.20
2022-10-17T00:19:22.469Z,1002.22
2022-10-17T00:20:23.460Z,1002.26
2022-10-17T00:21:22.428Z,1002.23
2022-10-17T00:22:22.411Z,1002.26
2022-10-17T00:23:23.410Z,1002.24
2022-10-17T00:24:22.404Z,1002.21
2022-10-17T00:25:22.424Z,1002.28
2022-10-17T00:26:22.378Z,1002.25
2022-10-17T00:27:22.371Z,1002.24
2022-10-17T00:28:22.387Z,1002.27
2022-10-17T00:29:22.353Z,1002.30
2022-10-17T00:30:22.383Z,1002.35
2022-10-17T00:31:22.334Z,1002.33
2022-10-17T00:32:22.321Z,1002.37
2022-10-17T00:33:22.327Z,1002.31
2022-10-17T00:34:22.312Z,1002.30
2022-10-17T00:35:22.332Z,1002.32
2022-10-17T00:36:22.295Z,1002.27
2022-10-17T00:37:22.290Z,1002.33
2022-10-17T00:38:22.275Z,1002.32
2022-10-17T00:39:22.268Z,1002.31
2022-10-17T00:40:22.289Z,1002.36
2022-10-17T00:41:22.323Z,1002.34
2022-10-17T00:42:22.241Z,1002.36
2022-10-17T00:43:22.235Z,1002.41
2022-10-17T00:44:22.234Z,1002.40
2022-10-17T00:45:22.244Z,1002.40
2022-10-17T00:46:22.203Z,1002.43
2022-10-17T00:47:22.203Z,1002.39
2022-10-17T00:48:23.324Z,1002.38
2022-10-17T00:49:22.217Z,1002.40
2022-10-17T00:50:22.215Z,1002.40
2022-10-17T00:51:22.174Z,1002.36
2022-10-17T00:52:22.161Z,1002.35
2022-10-17T00:53:22.146Z,1002.38
2022-10-17T00:54:22.151Z,1002.35
2022-10-17T00:55:22.161Z,1002.34
2022-10-17T00:56:22.129Z,1002.34
2022-10-17T00:57:22.128Z,1002.33
2022-10-17T00:58:22.120Z,1002.37
2022-10-17T00:59:22.110Z,1002.37
2022-10-17T01:00:22.121Z,1002.38
2022-10-17T01:01:22.136Z,1002.34
2022-10-17T01:02:22.088Z,1002.36
2022-10-17T01:03:22.068Z,1002.41
2022-10-17T01:04:22.065Z,1002.42
2022-10-17T01:05:22.079Z,1002.42
2022-10-17T01:06:22.041Z,1002.38
2022-10-17T01:07:22.030Z,1002.49
2022-10-17T01:08:22.024Z,1002.44
2022-10-17T01:09:22.010Z,1002.43
2022-10-17T01:11:21.988Z,1002.54
2022-10-17T01:12:21.998Z,1002.54
2022-10-17T01:13:21.975Z,1002.56
2022-10-17T01:14:21.966Z,1002.65
2022-10-17T01:15:21.998Z,1002.59
2022-10-17T01:16:21.952Z,1002.63
2022-10-17T01:17:21.938Z,1002.61
2022-10-17T01:18:21.929Z,1002.63
2022-10-17T01:19:21.999Z,1002.57
2022-10-17T01:20:21.953Z,1002.60
2022-10-17T01:21:21.911Z,1002.60
2022-10-17T01:22:21.911Z,1002.58
2022-10-17T01:23:21.890Z,1002.63
2022-10-17T01:24:21.889Z,1002.58
2022-10-17T01:25:21.898Z,1002.59
2022-10-17T01:26:21.864Z,1002.59
2022-10-17T01:27:21.863Z,1002.64
2022-10-17T01:28:21.956Z,1002.60
2022-10-17T01:29:21.839Z,1002.60
2022-10-17T01:30:21.860Z,1002.63
2022-10-17T01:31:21.822Z,1002.61
2022-10-17T01:32:21.812Z,1002.61
2022-10-17T01:33:21.801Z,1002.54
2022-10-17T01:34:21.800Z,1002.60
2022-10-17T01:35:21.811Z,1002.60
2022-10-17T01:36:21.775Z,1002.64
2022-10-17T01:37:21.766Z,1002.59
2022-10-17T01:38:21.780Z,1002.61
2022-10-17T01:39:21.746Z,1002.60
2022-10-17T01:40:21.774Z,1002.61
2022-10-17T01:41:21.731Z,1002.58
2022-10-17T01:42:21.805Z,1002.63
2022-10-17T01:43:21.714Z,1002.65
2022-10-17T01:44:21.702Z,1002.61
2022-10-17T01:45:21.766Z,1002.62
2022-10-17T01:46:21.694Z,1002.60
2022-10-17T01:47:21.689Z,1002.61
2022-10-17T01:48:21.671Z,1002.59
2022-10-17T01:49:21.668Z,1002.60
2022-10-17T01:50:22.061Z,1002.59
2022-10-17T01:51:21.649Z,1002.61
2022-10-17T01:52:21.640Z,1002.61
2022-10-17T01:53:21.635Z,1002.63
2022-10-17T01:54:21.635Z,1002.65
2022-10-17T01:55:21.611Z,1002.56
2022-10-17T01:56:21.638Z,1002.68
2022-10-17T01:57:21.602Z,1002.63
2022-10-17T01:58:21.592Z,1002.66
2022-10-17T01:59:21.585Z,1002.62
2022-10-17T02:00:21.572Z,1002.53
2022-10-17T02:01:21.669Z,1002.63
2022-10-17T02:02:21.554Z,1002.57
2022-10-17T02:03:21.551Z,1002.62
2022-10-17T02:04:21.535Z,1002.63
2022-10-17T02:05:21.534Z,1002.57
2022-10-17T02:06:21.549Z,1002.59
2022-10-17T02:07:21.517Z,1002.58
2022-10-17T02:08:21.505Z,1002.60
2022-10-17T02:09:21.506Z,1002.61
2022-10-17T02:10:21.488Z,1002.60
2022-10-17T02:11:21.508Z,1002.57
2022-10-17T02:12:21.470Z,1002.56
2022-10-17T02:13:21.465Z,1002.58
2022-10-17T02:14:21.467Z,1002.53
2022-10-17T02:15:21.450Z,1002.59
2022-10-17T02:16:21.469Z,1002.58
2022-10-17T02:17:21.428Z,1002.52
2022-10-17T02:18:21.414Z,1002.64
2022-10-17T02:19:22.417Z,1002.62
2022-10-17T02:20:21.414Z,1002.56
2022-10-17T02:21:21.432Z,1002.61
2022-10-17T02:22:21.392Z,1002.60
2022-10-17T02:23:21.380Z,1002.64
2022-10-17T02:24:21.400Z,1002.65
2022-10-17T02:25:21.364Z,1002.60
2022-10-17T02:26:21.563Z,1002.64
2022-10-17T02:27:21.343Z,1002.60
2022-10-17T02:28:21.361Z,1002.67
2022-10-17T02:29:21.329Z,1002.70
2022-10-17T02:30:21.349Z,1002.71
2022-10-17T02:31:21.331Z,1002.68
2022-10-17T02:33:21.309Z,1002.73
2022-10-17T02:34:21.287Z,1002.67
2022-10-17T02:35:21.305Z,1002.66
2022-10-17T02:36:21.272Z,1002.63
2022-10-17T02:37:21.267Z,1002.64
2022-10-17T02:38:21.259Z,1002.64
2022-10-17T02:39:21.285Z,1002.68
2022-10-17T02:40:21.247Z,1002.67
2022-10-17T02:41:21.251Z,1002.66
2022-10-17T02:42:21.223Z,1002.69
2022-10-17T02:43:21.202Z,1002.65
2022-10-17T02:44:21.201Z,1002.70
2022-10-17T02:45:21.256Z,1002.68
2022-10-17T02:46:21.258Z,1002.70
2022-10-17T02:47:21.181Z,1002.69
2022-10-17T02:48:21.164Z,1002.66
2022-10-17T02:49:21.162Z,1002.61
2022-10-17T02:50:21.207Z,1002.69
2022-10-17T02:51:21.315Z,1002.72
2022-10-17T02:52:21.384Z,1002.68
2022-10-17T02:53:21.126Z,1002.67
2022-10-17T02:54:21.114Z,1002.71
2022-10-17T02:55:21.134Z,1002.70
2022-10-17T02:56:21.101Z,1002.72
2022-10-17T02:57:21.094Z,1002.65
2022-10-17T02:58:21.072Z,1002.60
2022-10-17T02:59:21.111Z,1002.59
2022-10-17T03:00:21.560Z,1002.64
2022-10-17T03:01:21.216Z,1002.68
2022-10-17T03:02:21.045Z,1002.68
2022-10-17T03:03:21.041Z,1002.70
2022-10-17T03:04:21.123Z,1002.69
2022-10-17T03:05:21.021Z,1002.65
2022-10-17T03:06:21.014Z,1002.68
2022-10-17T03:07:21.156Z,1002.65
2022-10-17T03:08:21.000Z,1002.72
2022-10-17T03:09:21.019Z,1002.66
2022-10-17T03:10:20.975Z,1002.70
2022-10-17T03:11:20.975Z,1002.67
2022-10-17T03:12:20.956Z,1002.70
2022-10-17T03:13:20.957Z,1002.66
2022-10-17T03:14:20.983Z,1002.67
2022-10-17T03:15:20.937Z,1002.68
2022-10-17T03:16:20.934Z,1002.67
2022-10-17T03:17:21.224Z,1002.71
2022-10-17T03:18:20.914Z,1002.66
2022-10-17T03:19:20.942Z,1002.72
2022-10-17T03:20:20.900Z,1002.72
2022-10-17T03:21:20.910Z,1002.68
2022-10-17T03:22:20.882Z,1002.70
2022-10-17T03:23:20.868Z,1002.74
2022-10-17T03:24:20.858Z,1002.71
2022-10-17T03:25:20.887Z,1002.72
2022-10-17T03:26:20.841Z,1002.69
2022-10-17T03:27:20.840Z,1002.73
2022-10-17T03:28:20.893Z,1002.69
2022-10-17T03:29:20.841Z,1002.77
2022-10-17T03:30:20.813Z,1002.73
2022-10-17T03:31:20.800Z,1002.72
2022-10-17T03:32:20.813Z,1002.69
2022-10-17T03:33:20.788Z,1002.73
2022-10-17T03:34:20.810Z,1002.71
2022-10-17T03:35:20.770Z,1002.69
2022-10-17T03:36:20.795Z,1002.69
2022-10-17T03:37:20.747Z,1002.68
2022-10-17T03:38:20.744Z,1002.72
2022-10-17T03:39:20.758Z,1002.74
2022-10-17T03:40:20.723Z,1002.68
2022-10-17T03:41:20.716Z,1002.70
2022-10-17T03:42:20.715Z,1002.68
2022-10-17T03:43:20.714Z,1002.70
2022-10-17T03:44:20.741Z,1002.75
2022-10-17T03:45:20.682Z,1002.69
2022-10-17T03:46:20.748Z,1002.75
2022-10-17T03:47:20.663Z,1002.73
2022-10-17T03:48:21.737Z,1002.78
2022-10-17T03:49:20.648Z,1002.76
2022-10-17T03:50:20.667Z,1002.84
2022-10-17T03:51:20.633Z,1002.89
2022-10-17T03:52:20.620Z,1002.81
2022-10-17T03:53:20.611Z,1002.79
2022-10-17T03:54:20.608Z,1002.79
2022-10-17T03:55:20.635Z,1002.82
2022-10-17T03:56:20.595Z,1002.81
2022-10-17T03:57:20.591Z,1002.83
2022-10-17T03:58:20.582Z,1002.84
2022-10-17T03:59:20.572Z,1002.84
2022-10-17T04:00:20.586Z,1002.89
2022-10-17T04:01:20.599Z,1002.85
2022-10-17T04:02:20.542Z,1002.86
2022-10-17T04:03:20.533Z,1002.85
2022-10-17T04:04:20.565Z,1002.90
2022-10-17T04:05:20.551Z,1002.87
2022-10-17T04:06:20.504Z,1002.94
2022-10-17T04:07:20.529Z,1002.95
2022-10-17T04:08:20.491Z,1002.97
2022-10-17T04:09:20.491Z,1002.94
2022-10-17T04:10:20.506Z,1002.99
2022-10-17T04:11:20.473Z,1002.91
2022-10-17T04:12:20.464Z,1003.00
2022-10-17T04:13:20.502Z,1002.93
2022-10-17T04:14:20.575Z,1002.97
2022-10-17T04:15:20.460Z,1003.01
2022-10-17T04:16:21.424Z,1002.98
2022-10-17T04:17:20.415Z,1002.97
2022-10-17T04:18:20.411Z,1003.01
2022-10-17T04:19:20.401Z,1002.97
2022-10-17T04:20:20.473Z,1002.99
2022-10-17T04:21:20.379Z,1002.97
2022-10-17T04:22:20.377Z,1002.96
2022-10-17T04:23:20.362Z,1002.99
2022-10-17T04:24:20.362Z,1002.99
2022-10-17T04:25:20.370Z,1002.98
2022-10-17T04:26:20.355Z,1002.93
2022-10-17T04:27:20.329Z,1003.02
2022-10-17T04:28:20.374Z,1003.01
2022-10-17T04:29:20.310Z,1002.98
2022-10-17T04:30:20.340Z,1002.95
2022-10-17T04:31:20.290Z,1003.10
2022-10-17T04:32:20.280Z,1003.02
2022-10-17T04:33:20.283Z,1003.10
2022-10-17T04:34:20.286Z,1003.11
2022-10-17T04:35:20.282Z,1003.10
2022-10-17T04:36:20.249Z,1003.11
2022-10-17T04:37:20.248Z,1003.10
2022-10-17T04:38:21.949Z,1003.16
2022-10-17T04:39:20.230Z,1003.20
2022-10-17T04:40:20.252Z,1003.22
2022-10-17T04:41:20.211Z,1003.17
2022-10-17T04:42:20.240Z,1003.22
2022-10-17T04:43:20.192Z,1003.25
2022-10-17T04:44:20.189Z,1003.27
2022-10-17T04:45:20.209Z,1003.32
2022-10-17T04:46:20.165Z,1003.27
2022-10-17T04:47:20.164Z,1003.28
2022-10-17T04:48:20.189Z,1003.32
2022-10-17T04:49:20.139Z,1003.36
2022-10-17T04:50:20.154Z,1003.29
2022-10-17T04:51:23.331Z,1003.36
2022-10-17T04:52:20.117Z,1003.37
2022-10-17T04:53:20.157Z,1003.35
2022-10-17T04:54:20.118Z,1003.37
2022-10-17T04:55:20.178Z,1003.30
2022-10-17T04:56:20.084Z,1003.29
2022-10-17T04:57:20.083Z,1003.35
2022-10-17T04:58:20.071Z,1003.34
2022-10-17T04:59:20.064Z,1003.31
2022-10-17T05:00:20.089Z,1003.36
2022-10-17T05:01:20.101Z,1003.37
2022-10-17T05:02:20.036Z,1003.35
2022-10-17T05:03:20.622Z,1003.32
2022-10-17T05:04:22.457Z,1003.28
2022-10-17T05:05:20.040Z,1003.26
2022-10-17T05:06:19.994Z,1003.35
2022-10-17T05:07:19.988Z,1003.32
2022-10-17T05:08:19.972Z,1003.32
2022-10-17T05:09:20.979Z,1003.25
2022-10-17T05:10:20.008Z,1003.28
2022-10-17T05:11:20.000Z,1003.28
2022-10-17T05:12:19.949Z,1003.30
2022-10-17T05:13:19.939Z,1003.25
2022-10-17T05:14:19.934Z,1003.30
2022-10-17T05:15:19.961Z,1003.31
2022-10-17T05:16:19.914Z,1003.30
2022-10-17T05:17:19.901Z,1003.35
2022-10-17T05:18:19.896Z,1003.32
2022-10-17T05:19:19.893Z,1003.31
2022-10-17T05:20:19.920Z,1003.28
2022-10-17T05:21:19.918Z,1003.31
2022-10-17T05:22:19.856Z,1003.32
2022-10-17T05:23:19.851Z,1003.37
2022-10-17T05:24:19.882Z,1003.31
2022-10-17T05:25:19.832Z,1003.32
2022-10-17T05:26:19.867Z,1003.43
2022-10-17T05:27:19.815Z,1003.40
2022-10-17T05:28:19.807Z,1003.35
2022-10-17T05:29:19.801Z,1003.43
2022-10-17T05:30:19.790Z,1003.40
2022-10-17T05:31:19.830Z,1003.41
2022-10-17T05:32:19.769Z,1003.38
2022-10-17T05:33:19.764Z,1003.28
2022-10-17T05:34:19.769Z,1003.35
2022-10-17T05:35:19.797Z,1003.41
2022-10-17T05:36:19.747Z,1003.38
2022-10-17T05:37:19.732Z,1003.30
2022-10-17T05:38:19.739Z,1003.35
2022-10-17T05:39:19.727Z,1003.38
2022-10-17T05:40:19.759Z,1003.43
2022-10-17T05:41:19.692Z,1003.40
2022-10-17T05:42:19.769Z,1003.43
2022-10-17T05:43:19.686Z,1003.40
2022-10-17T05:44:19.678Z,1003.42
2022-10-17T05:45:19.665Z,1003.45
2022-10-17T05:46:19.689Z,1003.51
2022-10-17T05:47:19.647Z,1003.49
2022-10-17T05:48:19.648Z,1003.48
2022-10-17T05:49:33.036Z,1003.45
2022-10-17T05:50:21.627Z,1003.46
2022-10-17T05:51:19.870Z,1003.50
2022-10-17T05:52:20.607Z,1003.48
2022-10-17T05:53:19.682Z,1003.51
2022-10-17T05:54:19.588Z,1003.44
2022-10-17T05:55:19.589Z,1003.51
2022-10-17T05:56:19.674Z,1003.56
2022-10-17T05:57:19.565Z,1003.59
2022-10-17T05:58:22.069Z,1003.57
2022-10-17T05:59:21.551Z,1003.54
2022-10-17T06:00:19.564Z,1003.52
2022-10-17T06:01:19.582Z,1003.57
2022-10-17T06:02:19.639Z,1003.53
2022-10-17T06:03:19.535Z,1003.46
2022-10-17T06:04:19.529Z,1003.59
2022-10-17T06:05:19.590Z,1003.59
2022-10-17T06:06:19.520Z,1003.65
2022-10-17T06:07:19.525Z,1003.61
2022-10-17T06:08:19.490Z,1003.65
2022-10-17T06:09:19.463Z,1003.63
2022-10-17T06:10:19.465Z,1003.64
2022-10-17T06:11:19.487Z,1003.68
2022-10-17T06:12:19.448Z,1003.66
2022-10-17T06:13:19.433Z,1003.65
2022-10-17T06:14:19.419Z,1003.68
2022-10-17T06:15:19.438Z,1003.71
2022-10-17T06:16:19.446Z,1003.73
2022-10-17T06:17:19.401Z,1003.77
2022-10-17T06:18:19.397Z,1003.76
2022-10-17T06:19:19.383Z,1003.78
2022-10-17T06:20:19.375Z,1003.81
2022-10-17T06:21:19.400Z,1003.75
2022-10-17T06:22:19.359Z,1003.79
2022-10-17T06:23:19.353Z,1003.77
2022-10-17T06:24:19.338Z,1003.80
2022-10-17T06:25:19.330Z,1003.79
2022-10-17T06:26:19.357Z,1003.81
2022-10-17T06:27:19.317Z,1003.86
2022-10-17T06:28:19.487Z,1003.84
2022-10-17T06:29:19.302Z,1003.93
2022-10-17T06:30:19.288Z,1003.86
2022-10-17T06:31:19.310Z,1003.94
2022-10-17T06:32:19.278Z,1003.97
2022-10-17T06:33:19.271Z,1004.01
2022-10-17T06:34:19.291Z,1004.00
2022-10-17T06:35:19.251Z,1004.08
2022-10-17T06:36:19.270Z,1004.02
2022-10-17T06:37:19.232Z,1004.08
2022-10-17T06:38:19.229Z,1004.05
2022-10-17T06:39:19.260Z,1004.05
2022-10-17T06:40:19.196Z,1004.10
2022-10-17T06:41:19.304Z,1004.06
2022-10-17T06:42:19.187Z,1004.00
2022-10-17T06:43:19.177Z,1003.96
2022-10-17T06:44:19.162Z,1003.95
2022-10-17T06:45:19.156Z,1003.88
2022-10-17T06:46:19.222Z,1003.89
2022-10-17T06:47:20.042Z,1003.95
2022-10-17T06:48:20.138Z,1003.97
2022-10-17T06:49:19.123Z,1003.89
2022-10-17T06:50:19.233Z,1003.86
2022-10-17T06:51:19.157Z,1003.85
2022-10-17T06:52:19.098Z,1003.83
2022-10-17T06:53:19.106Z,1003.83
2022-10-17T06:54:19.083Z,1003.84
2022-10-17T06:55:22.616Z,1003.89
2022-10-17T06:56:19.096Z,1003.91
2022-10-17T06:57:19.076Z,1003.96
2022-10-17T06:58:19.054Z,1003.99
2022-10-17T06:59:19.047Z,1003.99
2022-10-17T07:00:19.037Z,1003.93
2022-10-17T07:01:19.054Z,1004.00
2022-10-17T07:02:19.018Z,1003.94
2022-10-17T07:03:19.062Z,1003.94
2022-10-17T07:04:19.012Z,1003.91
2022-10-17T07:05:18.994Z,1003.98
2022-10-17T07:06:19.073Z,1003.96
2022-10-17T07:07:18.970Z,1003.89
2022-10-17T07:08:19.027Z,1003.98
2022-10-17T07:09:19.013Z,1003.89
2022-10-17T07:10:18.980Z,1003.94
2022-10-17T07:11:18.982Z,1003.86
2022-10-17T07:12:18.938Z,1003.84
2022-10-17T07:13:18.922Z,1003.87
2022-10-17T07:14:18.908Z,1004.01
2022-10-17T07:15:18.902Z,1004.04
2022-10-17T07:16:18.922Z,1004.08
2022-10-17T07:17:19.178Z,1004.04
2022-10-17T07:18:18.878Z,1004.06
2022-10-17T07:19:18.874Z,1003.92
2022-10-17T07:20:18.859Z,1003.91
2022-10-17T07:21:19.872Z,1003.97
2022-10-17T07:22:18.869Z,1003.99
2022-10-17T07:23:18.828Z,1003.99
2022-10-17T07:24:18.865Z,1004.04
2022-10-17T07:25:18.820Z,1004.01
2022-10-17T07:26:18.859Z,1004.05
2022-10-17T07:27:18.799Z,1004.11
2022-10-17T07:28:18.787Z,1004.05
2022-10-17T07:29:18.826Z,1004.08
2022-10-17T07:30:18.771Z,1004.07
2022-10-17T07:31:18.795Z,1004.17
2022-10-17T07:32:18.944Z,1004.26
2022-10-17T07:33:18.814Z,1004.25
2022-10-17T07:34:18.741Z,1004.21
2022-10-17T07:35:18.734Z,1004.16
2022-10-17T07:36:18.724Z,1004.27
2022-10-17T07:37:18.769Z,1004.28
2022-10-17T07:38:18.701Z,1004.26
2022-10-17T07:39:18.710Z,1004.17
2022-10-17T07:40:18.681Z,1004.29
2022-10-17T07:41:20.925Z,1004.19
2022-10-17T07:42:18.705Z,1004.23
2022-10-17T07:43:18.677Z,1004.19
2022-10-17T07:44:18.655Z,1004.13
2022-10-17T07:45:18.699Z,1004.11
2022-10-17T07:46:18.641Z,1004.12
2022-10-17T07:47:18.655Z,1004.09
2022-10-17T07:48:18.637Z,1004.11
2022-10-17T07:49:18.612Z,1004.14
2022-10-17T07:50:18.611Z,1004.11
2022-10-17T07:51:18.598Z,1004.14
2022-10-17T07:52:18.633Z,1004.14
2022-10-17T07:53:18.578Z,1004.12
2022-10-17T07:54:18.580Z,1004.18
2022-10-17T07:55:18.565Z,1004.21
2022-10-17T07:56:18.587Z,1004.16
2022-10-17T07:57:18.571Z,1004.17
2022-10-17T07:58:18.534Z,1004.15
2022-10-17T07:59:18.536Z,1004.22
2022-10-17T08:00:18.717Z,1004.17
2022-10-17T08:01:18.535Z,1004.09
2022-10-17T08:02:18.542Z,1004.17
2022-10-17T08:03:18.503Z,1004.12
2022-10-17T08:04:18.490Z,1004.07
2022-10-17T08:05:19.277Z,1004.01
2022-10-17T08:06:18.471Z,1004.10
2022-10-17T08:07:22.997Z,1004.18
2022-10-17T08:08:20.458Z,1004.05
2022-10-17T08:09:18.450Z,1004.05
2022-10-17T08:10:18.442Z,1004.05
2022-10-17T08:11:18.434Z,1004.02
2022-10-17T08:12:18.464Z,1003.94
2022-10-17T08:13:18.418Z,1003.99
2022-10-17T08:14:18.409Z,1003.94
2022-10-17T08:15:18.436Z,1003.83
2022-10-17T08:16:18.389Z,1003.84
2022-10-17T08:17:18.417Z,1003.82
2022-10-17T08:18:18.374Z,1003.90
2022-10-17T08:19:18.376Z,1003.81
2022-10-17T08:20:18.369Z,1003.87
2022-10-17T08:21:18.456Z,1003.79
2022-10-17T08:22:18.382Z,1003.83
2022-10-17T08:23:18.364Z,1003.82
2022-10-17T08:24:18.338Z,1003.80
2022-10-17T08:25:18.330Z,1003.73
2022-10-17T08:26:18.319Z,1003.81
2022-10-17T08:27:18.337Z,1003.75
2022-10-17T08:28:18.303Z,1003.74
2022-10-17T08:29:18.345Z,1003.76
2022-10-17T08:30:18.292Z,1003.67
2022-10-17T08:31:18.287Z,1003.67
2022-10-17T08:32:18.300Z,1003.70
2022-10-17T08:33:18.259Z,1003.68
2022-10-17T08:34:18.325Z,1003.65
2022-10-17T08:35:18.245Z,1003.68
2022-10-17T08:36:18.238Z,1003.67
2022-10-17T08:37:18.273Z,1003.67
2022-10-17T08:38:20.969Z,1003.66
2022-10-17T08:39:19.214Z,1003.67
2022-10-17T08:40:18.214Z,1003.58
2022-10-17T08:41:18.202Z,1003.65
2022-10-17T08:42:18.236Z,1003.70
2022-10-17T08:43:18.183Z,1003.74
2022-10-17T08:44:18.175Z,1003.66
2022-10-17T08:45:18.175Z,1003.71
2022-10-17T08:46:18.168Z,1003.66
2022-10-17T08:47:18.177Z,1003.60
2022-10-17T08:48:18.139Z,1003.57
2022-10-17T08:49:18.130Z,1003.54
2022-10-17T08:50:18.127Z,1003.49
2022-10-17T08:51:18.200Z,1003.47
2022-10-17T08:52:18.141Z,1003.51
2022-10-17T08:53:18.099Z,1003.50
2022-10-17T08:54:18.099Z,1003.46
2022-10-17T08:56:19.954Z,1003.44
2022-10-17T08:57:20.112Z,1003.39
2022-10-17T08:58:18.069Z,1003.37
2022-10-17T08:59:18.050Z,1003.36
2022-10-17T09:00:18.044Z,1003.42
2022-10-17T09:01:18.026Z,1003.47
2022-10-17T09:02:19.071Z,1003.43
2022-10-17T09:03:18.080Z,1003.41
2022-10-17T09:04:18.042Z,1003.41
2022-10-17T09:05:20.185Z,1003.33
2022-10-17T09:06:17.997Z,1003.40
2022-10-17T09:07:18.026Z,1003.42
2022-10-17T09:08:17.993Z,1003.30
2022-10-17T09:09:17.986Z,1003.29
2022-10-17T09:10:17.974Z,1003.30
2022-10-17T09:11:17.982Z,1003.32
2022-10-17T09:12:17.983Z,1003.34
2022-10-17T09:13:17.948Z,1003.36
2022-10-17T09:14:18.045Z,1003.26
2022-10-17T09:15:17.936Z,1003.19
2022-10-17T09:16:17.952Z,1003.27
2022-10-17T09:17:17.950Z,1003.22
2022-10-17T09:18:21.112Z,1003.23
2022-10-17T09:19:17.908Z,1003.21
2022-10-17T09:20:17.918Z,1003.19
2022-10-17T09:21:17.893Z,1003.17
2022-10-17T09:22:17.920Z,1003.12
2022-10-17T09:23:17.894Z,1003.18
2022-10-17T09:24:17.862Z,1003.10
2022-10-17T09:25:17.858Z,1003.17
2022-10-17T09:26:17.898Z,1003.08
2022-10-17T09:27:17.874Z,1003.09
2022-10-17T09:28:17.846Z,1003.00
2022-10-17T09:29:17.850Z,1003.01
2022-10-17T09:30:40.022Z,1003.12
2022-10-17T09:31:18.809Z,1003.07
2022-10-17T09:32:17.813Z,1002.98
2022-10-17T09:33:28.775Z,1002.96
2022-10-17T09:34:21.074Z,1002.94
2022-10-17T09:35:17.810Z,1002.96
2022-10-17T09:36:17.782Z,1002.95
2022-10-17T09:37:17.808Z,1002.97
2022-10-17T09:38:17.766Z,1002.96
2022-10-17T09:39:17.762Z,1002.83
2022-10-17T09:40:17.758Z,1002.82
2022-10-17T09:41:42.849Z,1002.85
2022-10-17T09:42:19.767Z,1002.89
2022-10-17T09:43:17.729Z,1002.76
2022-10-17T09:44:17.729Z,1002.85
2022-10-17T09:45:17.718Z,1002.76
2022-10-17T09:46:17.706Z,1002.74
2022-10-17T09:47:17.732Z,1002.82
2022-10-17T09:48:17.692Z,1002.75
2022-10-17T09:49:17.690Z,1002.77
2022-10-17T09:50:17.690Z,1002.74
2022-10-17T09:51:25.716Z,1002.73
2022-10-17T09:52:19.700Z,1002.75
2022-10-17T09:53:17.668Z,1002.75
2022-10-17T09:54:17.665Z,1002.85
2022-10-17T09:55:17.669Z,1002.85
2022-10-17T09:56:17.666Z,1002.84
2022-10-17T09:57:17.667Z,1002.98
2022-10-17T09:58:17.620Z,1002.89
2022-10-17T09:59:17.627Z,1002.85
2022-10-17T10:00:17.621Z,1002.85
2022-10-17T10:01:21.122Z,1002.83
2022-10-17T10:02:19.631Z,1002.84
2022-10-17T10:03:17.601Z,1002.82
2022-10-17T10:04:17.593Z,1002.87
2022-10-17T10:05:17.580Z,1002.85
2022-10-17T10:06:17.569Z,1002.84
2022-10-17T10:07:17.596Z,1002.93
2022-10-17T10:08:17.565Z,1002.93
2022-10-17T10:09:17.572Z,1002.96
2022-10-17T10:10:17.554Z,1002.90
2022-10-17T10:11:17.533Z,1002.90
2022-10-17T10:12:17.559Z,1003.04
2022-10-17T10:13:17.519Z,1002.88
2022-10-17T10:14:17.518Z,1003.01
2022-10-17T10:15:17.509Z,1002.93
2022-10-17T10:16:17.504Z,1002.93
2022-10-17T10:17:17.495Z,1002.92
2022-10-17T10:18:17.590Z,1002.95
2022-10-17T10:19:17.479Z,1002.94
2022-10-17T10:20:17.463Z,1002.91
2022-10-17T10:21:17.470Z,1002.84
2022-10-17T10:22:17.489Z,1002.88
2022-10-17T10:23:17.475Z,1002.92
2022-10-17T10:24:17.441Z,1002.94
2022-10-17T10:25:17.438Z,1002.88
2022-10-17T10:26:20.291Z,1002.91
2022-10-17T10:27:18.494Z,1002.92
2022-10-17T10:28:17.412Z,1002.88
2022-10-17T10:29:17.415Z,1002.88
2022-10-17T10:30:17.405Z,1002.93
2022-10-17T10:31:17.395Z,1002.95
2022-10-17T10:32:17.419Z,1002.96
2022-10-17T10:33:17.382Z,1002.96
2022-10-17T10:34:17.373Z,1002.95
2022-10-17T10:35:17.373Z,1002.95
2022-10-17T10:36:17.348Z,1003.02
2022-10-17T10:37:17.368Z,1003.01
2022-10-17T10:38:18.343Z,1002.95
2022-10-17T10:39:17.339Z,1003.02
2022-10-17T10:40:17.335Z,1003.04
2022-10-17T10:41:17.329Z,1002.94
2022-10-17T10:42:17.344Z,1002.94
2022-10-17T10:43:17.311Z,1002.99
2022-10-17T10:44:17.301Z,1003.01
2022-10-17T10:45:29.340Z,1003.04
2022-10-17T10:46:19.298Z,1002.96
2022-10-17T10:47:17.306Z,1003.04
2022-10-17T10:48:17.269Z,1003.08
2022-10-17T10:49:17.277Z,1002.97
2022-10-17T10:50:17.260Z,1002.99
2022-10-17T10:51:17.247Z,1002.98
2022-10-17T10:52:17.284Z,1003.00
2022-10-17T10:53:17.242Z,1002.96
2022-10-17T10:54:17.238Z,1003.00
2022-10-17T10:55:17.233Z,1002.89
2022-10-17T10:56:17.220Z,1002.94
2022-10-17T10:57:17.251Z,1002.98
2022-10-17T10:58:17.213Z,1002.86
2022-10-17T10:59:17.197Z,1002.83
2022-10-17T11:00:17.182Z,1002.89
2022-10-17T11:01:17.249Z,1002.87
2022-10-17T11:02:17.180Z,1002.83
2022-10-17T11:03:17.247Z,1003.00
2022-10-17T11:04:17.172Z,1002.83
2022-10-17T11:05:17.161Z,1002.92
2022-10-17T11:06:17.150Z,1002.87
2022-10-17T11:07:17.142Z,1002.95
2022-10-17T11:08:17.166Z,1002.99
2022-10-17T11:09:17.123Z,1003.11
2022-10-17T11:10:17.125Z,1003.02
2022-10-17T11:11:17.112Z,1003.00
2022-10-17T11:12:17.102Z,1002.93
2022-10-17T11:13:17.130Z,1002.88
2022-10-17T11:14:17.094Z,1002.92
2022-10-17T11:15:17.084Z,1002.93
2022-10-17T11:16:17.072Z,1002.83
2022-10-17T11:17:17.072Z,1002.81
2022-10-17T11:18:17.103Z,1002.87
2022-10-17T11:19:17.061Z,1002.76
2022-10-17T11:20:17.198Z,1002.70
2022-10-17T11:21:17.037Z,1002.84
2022-10-17T11:22:17.038Z,1002.75
2022-10-17T11:23:17.061Z,1002.82
2022-10-17T11:24:17.017Z,1002.72
2022-10-17T11:25:17.021Z,1002.79
2022-10-17T11:26:17.024Z,1002.74
2022-10-17T11:27:17.003Z,1002.71
2022-10-17T11:28:17.011Z,1002.77
2022-10-17T11:29:17.987Z,1002.84
2022-10-17T11:30:16.976Z,1002.82
2022-10-17T11:31:16.971Z,1002.74
2022-10-17T11:32:16.964Z,1002.81
2022-10-17T11:33:16.980Z,1002.87
2022-10-17T11:34:16.949Z,1002.86
2022-10-17T11:35:16.945Z,1002.73
2022-10-17T11:36:16.933Z,1002.70
2022-10-17T11:37:16.931Z,1002.83
2022-10-17T11:38:16.942Z,1002.75
2022-10-17T11:39:16.916Z,1002.76
2022-10-17T11:40:19.212Z,1002.79
2022-10-17T11:41:18.904Z,1002.78
2022-10-17T11:42:16.895Z,1002.75
2022-10-17T11:43:16.913Z,1002.77
2022-10-17T11:44:16.877Z,1002.70
2022-10-17T11:45:16.867Z,1002.67
2022-10-17T11:46:16.856Z,1002.72
2022-10-17T11:47:16.857Z,1002.64
2022-10-17T11:48:16.880Z,1002.68
2022-10-17T11:49:20.482Z,1002.60
2022-10-17T11:52:31.876Z,1002.70
2022-10-17T11:53:18.841Z,1002.63
2022-10-17T11:54:16.802Z,1002.61
2022-10-17T11:55:16.796Z,1002.65
2022-10-17T11:56:16.784Z,1002.65
2022-10-17T11:57:16.782Z,1002.73
2022-10-17T11:58:16.849Z,1002.74
2022-10-17T11:59:16.764Z,1002.71
2022-10-17T12:00:16.757Z,1002.70
2022-10-17T12:01:16.747Z,1002.74
2022-10-17T12:02:16.754Z,1002.73
2022-10-17T12:03:16.777Z,1002.80
2022-10-17T12:04:16.763Z,1002.73
2022-10-17T12:05:16.717Z,1002.71
2022-10-17T12:06:16.714Z,1002.67
2022-10-17T12:07:16.702Z,1002.68
2022-10-17T12:08:16.730Z,1002.65
2022-10-17T12:09:16.694Z,1002.69
2022-10-17T12:10:16.686Z,1002.64